createdAt,value
2019-04-05T00:00:51.396Z,53.52
2019-04-05T00:01:51.404Z,53.65
2019-04-05T00:02:51.407Z,53.96
2019-04-05T00:03:51.374Z,53.85
2019-04-05T00:04:51.359Z,53.85
2019-04-05T00:05:51.350Z,53.85
2019-04-05T00:06:51.342Z,54.05
2019-04-05T00:07:51.337Z,53.55
2019-04-05T00:08:52.327Z,53.85
2019-04-05T00:09:51.316Z,54.05
2019-04-05T00:10:51.289Z,53.75
2019-04-05T00:11:51.291Z,53.55
2019-04-05T00:12:51.301Z,53.78
2019-04-05T00:13:51.261Z,54.18
2019-04-05T00:14:51.250Z,53.57
2019-04-05T00:15:51.250Z,54.08
2019-04-05T00:16:51.231Z,54.18
2019-04-05T00:17:51.241Z,54.28
2019-04-05T00:18:51.218Z,53.78
2019-04-05T00:19:51.229Z,54.28
2019-04-05T00:20:51.183Z,54.18
2019-04-05T00:21:51.173Z,53.67
2019-04-05T00:22:51.165Z,53.98
2019-04-05T00:23:51.165Z,54.28
2019-04-05T00:24:51.172Z,54.28
2019-04-05T00:25:51.136Z,54.49
2019-04-05T00:26:51.126Z,54.18
2019-04-05T00:27:51.113Z,54.18
2019-04-05T00:28:51.862Z,54.49
2019-04-05T00:29:51.117Z,54.39
2019-04-05T00:30:51.087Z,54.28
2019-04-05T00:31:51.069Z,54.49
2019-04-05T00:32:51.073Z,54.69
2019-04-05T00:33:51.050Z,54.11
2019-04-05T00:34:51.053Z,54.31
2019-04-05T00:35:51.028Z,54.21
2019-04-05T00:36:51.044Z,54.31
2019-04-05T00:37:51.004Z,54.82
2019-04-05T00:38:50.999Z,54.92
2019-04-05T00:39:50.985Z,54.61
2019-04-05T00:40:50.998Z,54.82
2019-04-05T00:41:50.962Z,54.64
2019-04-05T00:42:50.954Z,54.85
2019-04-05T00:43:50.942Z,54.74
2019-04-05T00:44:50.931Z,54.85
2019-04-05T00:45:50.916Z,54.92
2019-04-05T00:46:50.936Z,54.94
2019-04-05T00:47:50.907Z,54.94
2019-04-05T00:48:50.887Z,55.15
2019-04-05T00:49:50.870Z,55.15
2019-04-05T00:50:50.863Z,54.33
2019-04-05T00:51:50.862Z,54.94
2019-04-05T00:52:50.834Z,55.12
2019-04-05T00:53:50.826Z,54.24
2019-04-05T00:54:50.834Z,54.44
2019-04-05T00:55:50.809Z,54.33
2019-04-05T00:56:50.796Z,54.13
2019-04-05T00:57:50.800Z,54.44
2019-04-05T00:58:50.774Z,54.41
2019-04-05T00:59:50.754Z,54.24
2019-04-05T01:00:50.742Z,54.24
2019-04-05T01:01:50.744Z,54.24
2019-04-05T01:02:50.754Z,55.05
2019-04-05T01:03:50.717Z,55.15
2019-04-05T01:04:50.698Z,55.15
2019-04-05T01:05:50.692Z,54.74
2019-04-05T01:06:50.680Z,54.77
2019-04-05T01:07:50.706Z,54.87
2019-04-05T01:08:50.666Z,54.87
2019-04-05T01:09:50.654Z,55.07
2019-04-05T01:10:50.653Z,55.28
2019-04-05T01:11:50.624Z,55.79
2019-04-05T01:12:50.642Z,56.20
2019-04-05T01:13:50.629Z,56.09
2019-04-05T01:14:50.591Z,56.29
2019-04-05T01:15:50.597Z,56.42
2019-04-05T01:16:50.585Z,56.52
2019-04-05T01:17:50.560Z,56.83
2019-04-05T01:18:50.575Z,56.12
2019-04-05T01:19:50.560Z,56.52
2019-04-05T01:20:50.731Z,56.96
2019-04-05T01:21:50.531Z,56.35
2019-04-05T01:22:50.516Z,57.37
2019-04-05T01:23:50.494Z,57.17
2019-04-05T01:24:50.519Z,56.96
2019-04-05T01:25:50.472Z,57.24
2019-04-05T01:26:50.464Z,57.17
2019-04-05T01:27:50.465Z,57.17
2019-04-05T01:28:50.447Z,56.96
2019-04-05T01:29:50.435Z,56.24
2019-04-05T01:30:50.443Z,57.26
2019-04-05T01:31:50.417Z,57.17
2019-04-05T01:32:50.398Z,56.35
2019-04-05T01:33:50.402Z,56.24
2019-04-05T01:34:50.382Z,57.14
2019-04-05T01:35:50.389Z,56.42
2019-04-05T01:36:50.356Z,56.24
2019-04-05T01:37:50.346Z,56.85
2019-04-05T01:38:50.336Z,56.65
2019-04-05T01:39:50.329Z,57.26
2019-04-05T01:40:50.637Z,57.47
2019-04-05T01:41:50.307Z,57.09
2019-04-05T01:42:50.303Z,57.17
2019-04-05T01:43:50.293Z,57.26
2019-04-05T01:44:51.957Z,57.26
2019-04-05T01:45:54.062Z,57.26
2019-04-05T01:46:50.250Z,57.37
2019-04-05T01:47:50.244Z,57.19
2019-04-05T01:48:50.237Z,56.99
2019-04-05T01:49:50.214Z,57.06
2019-04-05T01:50:50.210Z,57.06
2019-04-05T01:51:50.234Z,57.29
2019-04-05T01:52:50.192Z,56.24
2019-04-05T01:53:50.182Z,56.35
2019-04-05T01:54:50.176Z,56.85
2019-04-05T01:55:50.157Z,56.24
2019-04-05T01:56:50.171Z,56.78
2019-04-05T01:57:50.133Z,56.85
2019-04-05T01:58:50.131Z,56.65
2019-04-05T01:59:50.180Z,56.15
2019-04-05T02:00:50.115Z,56.55
2019-04-05T02:01:50.100Z,57.06
2019-04-05T02:02:50.108Z,56.58
2019-04-05T02:03:50.075Z,56.27
2019-04-05T02:04:52.649Z,57.19
2019-04-05T02:05:50.060Z,56.99
2019-04-05T02:06:50.065Z,56.27
2019-04-05T02:07:50.049Z,57.19
2019-04-05T02:08:50.043Z,57.50
2019-04-05T02:09:50.003Z,57.39
2019-04-05T02:10:49.991Z,57.29
2019-04-05T02:11:49.994Z,57.29
2019-04-05T02:12:49.979Z,57.39
2019-04-05T02:13:49.985Z,57.19
2019-04-05T02:14:49.957Z,57.70
2019-04-05T02:15:49.950Z,57.62
2019-04-05T02:16:49.928Z,57.93
2019-04-05T02:17:49.926Z,57.73
2019-04-05T02:18:49.935Z,57.73
2019-04-05T02:19:49.908Z,58.03
2019-04-05T02:20:49.902Z,57.73
2019-04-05T02:21:49.882Z,57.73
2019-04-05T02:22:49.870Z,57.62
2019-04-05T02:23:49.889Z,58.03
2019-04-05T02:24:49.860Z,57.83
2019-04-05T02:25:49.842Z,58.14
2019-04-05T02:26:49.829Z,58.14
2019-04-05T02:27:49.814Z,58.14
2019-04-05T02:28:49.813Z,57.93
2019-04-05T02:29:49.824Z,58.14
2019-04-05T02:30:49.782Z,57.52
2019-04-05T02:31:49.788Z,57.83
2019-04-05T02:32:49.782Z,57.62
2019-04-05T02:33:49.755Z,58.03
2019-04-05T02:34:49.746Z,57.83
2019-04-05T02:35:49.755Z,57.73
2019-04-05T02:36:49.732Z,57.83
2019-04-05T02:37:49.715Z,57.75
2019-04-05T02:38:49.706Z,57.83
2019-04-05T02:39:49.697Z,57.96
2019-04-05T02:40:49.713Z,57.96
2019-04-05T02:41:49.673Z,58.16
2019-04-05T02:42:49.660Z,58.67
2019-04-05T02:43:49.657Z,58.34
2019-04-05T02:44:49.640Z,58.54
2019-04-05T02:45:49.639Z,58.44
2019-04-05T02:46:49.638Z,57.75
2019-04-05T02:47:51.808Z,58.37
2019-04-05T02:48:49.585Z,58.34
2019-04-05T02:49:49.603Z,58.57
2019-04-05T02:50:49.559Z,58.26
2019-04-05T02:51:49.583Z,58.37
2019-04-05T02:52:49.558Z,57.86
2019-04-05T02:53:49.538Z,58.37
2019-04-05T02:54:49.518Z,58.26
2019-04-05T02:55:49.521Z,58.26
2019-04-05T02:56:49.528Z,58.26
2019-04-05T02:57:49.492Z,58.06
2019-04-05T02:58:49.497Z,58.16
2019-04-05T02:59:49.476Z,57.96
2019-04-05T03:00:49.492Z,58.37
2019-04-05T03:01:49.469Z,58.47
2019-04-05T03:02:49.433Z,58.87
2019-04-05T03:03:49.427Z,58.57
2019-04-05T03:04:49.428Z,58.47
2019-04-05T03:05:49.410Z,58.98
2019-04-05T03:06:49.399Z,58.47
2019-04-05T03:07:49.407Z,59.31
2019-04-05T03:08:49.368Z,59.41
2019-04-05T03:09:49.391Z,59.11
2019-04-05T03:10:49.391Z,59.11
2019-04-05T03:11:50.118Z,59.41
2019-04-05T03:12:49.324Z,59.31
2019-04-05T03:13:49.318Z,59.52
2019-04-05T03:14:49.303Z,59.31
2019-04-05T03:15:49.305Z,59.21
2019-04-05T03:16:49.309Z,59.52
2019-04-05T03:17:49.297Z,59.21
2019-04-05T03:18:49.286Z,59.21
2019-04-05T03:19:49.261Z,59.52
2019-04-05T03:20:49.239Z,59.44
2019-04-05T03:21:49.233Z,59.52
2019-04-05T03:22:49.216Z,59.55
2019-04-05T03:23:49.233Z,59.85
2019-04-05T03:24:49.202Z,59.64
2019-04-05T03:25:49.184Z,60.03
2019-04-05T03:26:49.199Z,59.44
2019-04-05T03:27:49.173Z,59.95
2019-04-05T03:28:49.179Z,59.55
2019-04-05T03:29:49.145Z,59.75
2019-04-05T03:30:49.137Z,59.75
2019-04-05T03:31:49.120Z,59.64
2019-04-05T03:32:49.127Z,59.75
2019-04-05T03:33:49.105Z,59.85
2019-04-05T03:34:49.088Z,59.75
2019-04-05T03:35:49.081Z,60.16
2019-04-05T03:36:51.606Z,60.16
2019-04-05T03:37:49.089Z,60.26
2019-04-05T03:38:49.053Z,60.36
2019-04-05T03:39:49.038Z,60.49
2019-04-05T03:40:49.026Z,60.46
2019-04-05T03:41:49.025Z,60.90
2019-04-05T03:42:49.012Z,60.67
2019-04-05T03:43:49.155Z,60.36
2019-04-05T03:44:49.021Z,60.87
2019-04-05T03:45:48.977Z,61.58
2019-04-05T03:46:57.212Z,60.67
2019-04-05T03:47:49.951Z,60.60
2019-04-05T03:48:48.946Z,60.80
2019-04-05T03:49:48.936Z,60.57
2019-04-05T03:50:48.953Z,60.87
2019-04-05T03:51:48.912Z,60.90
2019-04-05T03:52:48.896Z,60.90
2019-04-05T03:53:48.884Z,61.21
2019-04-05T03:54:48.901Z,60.90
2019-04-05T03:55:48.874Z,61.82
2019-04-05T03:56:48.868Z,61.82
2019-04-05T03:57:48.842Z,61.82
2019-04-05T03:58:48.830Z,61.31
2019-04-05T03:59:48.825Z,61.41
2019-04-05T04:00:48.838Z,61.51
2019-04-05T04:01:48.802Z,61.51
2019-04-05T04:02:49.638Z,61.41
2019-04-05T04:03:48.775Z,61.44
2019-04-05T04:04:48.802Z,61.54
2019-04-05T04:05:48.756Z,61.44
2019-04-05T04:06:48.756Z,61.44
2019-04-05T04:07:49.654Z,61.44
2019-04-05T04:08:48.726Z,61.44
2019-04-05T04:09:48.749Z,61.44
2019-04-05T04:10:48.716Z,61.24
2019-04-05T04:11:48.692Z,61.95
2019-04-05T04:12:48.685Z,61.54
2019-04-05T04:13:48.684Z,61.65
2019-04-05T04:14:48.672Z,61.44
2019-04-05T04:15:48.679Z,61.54
2019-04-05T04:16:48.642Z,61.75
2019-04-05T04:17:48.635Z,61.75
2019-04-05T04:18:48.632Z,61.85
2019-04-05T04:19:48.615Z,62.05
2019-04-05T04:20:48.629Z,61.75
2019-04-05T04:21:48.597Z,61.85
2019-04-05T04:22:48.679Z,62.16
2019-04-05T04:23:48.565Z,62.16
2019-04-05T04:24:48.556Z,61.85
2019-04-05T04:25:48.569Z,62.26
2019-04-05T04:26:48.551Z,62.05
2019-04-05T04:27:48.527Z,61.75
2019-04-05T04:28:48.514Z,61.98
2019-04-05T04:29:48.504Z,62.39
2019-04-05T04:30:48.490Z,62.80
2019-04-05T04:31:48.511Z,62.49
2019-04-05T04:32:48.477Z,62.59
2019-04-05T04:33:48.461Z,63.00
2019-04-05T04:34:48.449Z,62.70
2019-04-05T04:35:48.438Z,62.80
2019-04-05T04:36:48.456Z,62.80
2019-04-05T04:37:48.413Z,63.10
2019-04-05T04:38:48.401Z,62.70
2019-04-05T04:39:48.391Z,62.59
2019-04-05T04:40:48.384Z,62.70
2019-04-05T04:41:48.375Z,63.13
2019-04-05T04:42:48.382Z,62.80
2019-04-05T04:43:48.366Z,62.80
2019-04-05T04:44:48.339Z,63.31
2019-04-05T04:45:48.338Z,63.31
2019-04-05T04:46:48.327Z,63.10
2019-04-05T04:47:48.326Z,62.80
2019-04-05T04:48:48.298Z,63.13
2019-04-05T04:49:49.277Z,63.21
2019-04-05T04:50:48.269Z,63.31
2019-04-05T04:51:48.272Z,63.10
2019-04-05T04:52:48.296Z,63.21
2019-04-05T04:53:48.245Z,62.59
2019-04-05T04:54:48.235Z,63.31
2019-04-05T04:55:48.225Z,63.72
2019-04-05T04:56:48.208Z,63.10
2019-04-05T04:57:48.204Z,63.31
2019-04-05T04:58:48.216Z,62.98
2019-04-05T04:59:48.186Z,62.49
2019-04-05T05:00:48.172Z,62.66
2019-04-05T05:01:48.159Z,62.05
2019-04-05T05:02:48.143Z,61.92
2019-04-05T05:03:48.143Z,61.51
2019-04-05T05:04:48.155Z,61.38
2019-04-05T05:05:48.125Z,61.08
2019-04-05T05:06:48.114Z,60.80
2019-04-05T05:07:48.088Z,60.97
2019-04-05T05:08:48.104Z,60.97
2019-04-05T05:09:48.067Z,60.03
2019-04-05T05:10:48.062Z,60.13
2019-04-05T05:11:48.054Z,59.72
2019-04-05T05:12:48.081Z,59.49
2019-04-05T05:13:48.053Z,58.87
2019-04-05T05:14:48.038Z,58.03
2019-04-05T05:15:48.008Z,57.83
2019-04-05T05:16:48.001Z,58.64
2019-04-05T05:17:58.125Z,57.80
2019-04-05T05:18:48.975Z,57.83
2019-04-05T05:19:47.987Z,58.64
2019-04-05T05:20:47.998Z,58.64
2019-04-05T05:21:47.947Z,57.70
2019-04-05T05:22:47.936Z,57.37
2019-04-05T05:23:47.965Z,56.45
2019-04-05T05:24:47.941Z,56.22
2019-04-05T05:25:47.917Z,56.52
2019-04-05T05:26:47.896Z,56.52
2019-04-05T05:27:47.916Z,55.89
2019-04-05T05:28:47.872Z,55.68
2019-04-05T05:29:47.856Z,54.66
2019-04-05T05:30:47.865Z,54.85
2019-04-05T05:31:47.866Z,54.87
2019-04-05T05:32:47.832Z,54.54
2019-04-05T05:33:47.815Z,54.31
2019-04-05T05:35:01.147Z,54.13
2019-04-05T05:35:48.806Z,54.21
2019-04-05T05:36:47.819Z,54.44
2019-04-05T05:37:47.783Z,54.54
2019-04-05T05:38:47.766Z,54.13
2019-04-05T05:39:47.747Z,54.97
2019-04-05T05:40:47.740Z,54.33
2019-04-05T05:41:47.728Z,54.13
2019-04-05T05:42:47.752Z,54.54
2019-04-05T05:43:47.711Z,54.26
2019-04-05T05:44:47.699Z,55.15
2019-04-05T05:45:47.687Z,54.51
2019-04-05T05:46:47.677Z,54.24
2019-04-05T05:47:52.106Z,55.48
2019-04-05T05:48:47.661Z,54.87
2019-04-05T05:49:47.643Z,54.85
2019-04-05T05:50:47.633Z,54.33
2019-04-05T05:51:47.622Z,54.54
2019-04-05T05:52:47.607Z,53.88
2019-04-05T05:53:47.631Z,53.34
2019-04-05T05:54:47.587Z,52.61
2019-04-05T05:55:47.665Z,52.10
2019-04-05T05:56:47.667Z,52.23
2019-04-05T05:57:47.559Z,53.98
2019-04-05T05:58:47.552Z,54.31
2019-04-05T05:59:47.569Z,54.24
2019-04-05T06:00:47.550Z,53.85
2019-04-05T06:01:48.140Z,52.51
2019-04-05T06:02:48.568Z,52.73
2019-04-05T06:03:47.496Z,53.88
2019-04-05T06:04:47.484Z,53.55
2019-04-05T06:05:47.485Z,51.85
2019-04-05T06:06:47.606Z,50.51
2019-04-05T06:07:47.471Z,50.38
2019-04-05T06:08:47.440Z,48.71
2019-04-05T06:09:47.887Z,49.19
2019-04-05T06:10:47.420Z,49.22
2019-04-05T06:11:47.431Z,49.98
2019-04-05T06:12:47.393Z,51.12
2019-04-05T06:13:47.488Z,53.34
2019-04-05T06:14:47.375Z,54.72
2019-04-05T06:15:47.518Z,56.57
2019-04-05T06:16:48.018Z,57.31
2019-04-05T06:17:47.376Z,58.05
2019-04-05T06:18:48.638Z,58.03
2019-04-05T06:19:47.750Z,57.59
2019-04-05T06:20:47.307Z,58.56
2019-04-05T06:21:47.314Z,58.94
2019-04-05T06:22:47.826Z,59.58
2019-04-05T06:23:47.318Z,59.07
2019-04-05T06:24:47.445Z,60.02
2019-04-05T06:25:47.259Z,60.96
2019-04-05T06:26:47.239Z,61.37
2019-04-05T06:27:47.242Z,61.27
2019-04-05T06:28:47.374Z,61.91
2019-04-05T06:29:47.380Z,63.81
2019-04-05T06:30:47.212Z,64.42
2019-04-05T06:31:47.190Z,64.01
2019-04-05T06:32:47.178Z,65.67
2019-04-05T06:33:47.198Z,65.67
2019-04-05T06:34:47.158Z,66.89
2019-04-05T06:35:47.180Z,67.24
2019-04-05T06:36:47.139Z,66.49
2019-04-05T06:37:47.135Z,66.11
2019-04-05T06:38:47.118Z,67.50
2019-04-05T06:39:47.144Z,66.42
2019-04-05T06:40:47.105Z,69.31
2019-04-05T06:41:47.091Z,70.98
2019-04-05T06:42:47.082Z,70.87
2019-04-05T06:43:47.062Z,70.67
2019-04-05T06:44:47.052Z,71.73
2019-04-05T06:45:47.115Z,72.48
2019-04-05T06:46:47.037Z,72.99
2019-04-05T06:47:47.020Z,73.10
2019-04-05T06:48:47.028Z,73.74
2019-04-05T06:49:47.016Z,74.15
2019-04-05T06:50:47.492Z,74.87
2019-04-05T06:51:46.988Z,74.87
2019-04-05T06:52:46.974Z,74.57
2019-04-05T06:53:46.957Z,74.98
2019-04-05T06:54:46.968Z,74.98
2019-04-05T06:55:46.959Z,73.81
2019-04-05T06:56:46.931Z,73.47
2019-04-05T06:57:46.922Z,72.55
2019-04-05T06:58:46.906Z,72.72
2019-04-05T06:59:46.891Z,72.52
2019-04-05T07:00:56.814Z,72.86
2019-04-05T07:01:47.874Z,73.71
2019-04-05T07:02:46.856Z,74.87
2019-04-05T07:03:46.856Z,75.59
2019-04-05T07:04:46.895Z,75.59
2019-04-05T07:05:46.857Z,75.18
2019-04-05T07:06:46.818Z,74.98
2019-04-05T07:07:46.806Z,76.41
2019-04-05T07:08:53.659Z,76.14
2019-04-05T07:09:47.806Z,76.79
2019-04-05T07:10:46.782Z,78.36
2019-04-05T07:11:46.789Z,79.53
2019-04-05T07:12:46.774Z,79.80
2019-04-05T07:13:46.742Z,79.80
2019-04-05T07:14:46.732Z,80.01
2019-04-05T07:15:46.729Z,80.25
2019-04-05T07:16:46.740Z,80.35
2019-04-05T07:17:46.738Z,80.25
2019-04-05T07:18:46.691Z,80.80
2019-04-05T07:19:46.677Z,81.73
2019-04-05T07:20:46.663Z,81.11
2019-04-05T07:21:46.671Z,81.21
2019-04-05T07:22:46.644Z,81.52
2019-04-05T07:23:46.676Z,81.18
2019-04-05T07:24:49.417Z,81.62
2019-04-05T07:25:46.610Z,81.52
2019-04-05T07:26:46.601Z,81.18
2019-04-05T07:27:46.603Z,81.79
2019-04-05T07:28:46.619Z,82.10
2019-04-05T07:29:47.012Z,81.48
2019-04-05T07:30:46.561Z,81.79
2019-04-05T07:31:46.545Z,80.93
2019-04-05T07:32:46.553Z,81.24
2019-04-05T07:33:46.543Z,80.73
2019-04-05T07:34:46.549Z,81.24
2019-04-05T07:35:46.533Z,81.14
2019-04-05T07:36:46.498Z,81.76
2019-04-05T07:37:46.488Z,81.65
2019-04-05T07:38:46.486Z,81.04
2019-04-05T07:39:46.486Z,80.90
2019-04-05T07:40:46.483Z,80.90
2019-04-05T07:41:46.448Z,80.79
2019-04-05T07:42:46.434Z,80.58
2019-04-05T07:43:46.446Z,80.69
2019-04-05T07:44:46.440Z,80.79
2019-04-05T07:45:46.393Z,81.24
2019-04-05T07:46:46.755Z,81.86
2019-04-05T07:47:46.377Z,81.55
2019-04-05T07:48:46.377Z,81.65
2019-04-05T07:49:46.360Z,81.41
2019-04-05T07:50:46.363Z,81.10
2019-04-05T07:51:46.329Z,81.10
2019-04-05T07:52:46.320Z,80.76
2019-04-05T07:53:46.307Z,80.69
2019-04-05T07:54:46.301Z,81.00
2019-04-05T07:55:46.332Z,80.76
2019-04-05T07:56:46.515Z,79.90
2019-04-05T07:57:46.267Z,79.49
2019-04-05T07:58:46.253Z,79.38
2019-04-05T07:59:46.251Z,79.49
2019-04-05T08:00:46.251Z,79.49
2019-04-05T08:01:46.250Z,79.38
2019-04-05T08:02:46.218Z,79.59
2019-04-05T08:03:46.201Z,80.14
2019-04-05T08:04:46.198Z,80.24
2019-04-05T08:05:46.184Z,79.80
2019-04-05T08:06:46.207Z,79.59
2019-04-05T08:07:46.275Z,79.28
2019-04-05T08:08:46.155Z,79.59
2019-04-05T08:09:46.145Z,79.38
2019-04-05T08:10:46.151Z,79.49
2019-04-05T08:11:46.149Z,79.24
2019-04-05T08:12:46.107Z,78.94
2019-04-05T08:13:46.105Z,78.74
2019-04-05T08:14:46.123Z,78.83
2019-04-05T08:15:46.071Z,77.98
2019-04-05T08:16:46.063Z,77.87
2019-04-05T08:17:46.053Z,78.53
2019-04-05T08:18:57.164Z,78.74
2019-04-05T08:19:47.075Z,79.49
2019-04-05T08:20:46.030Z,80.00
2019-04-05T08:21:46.025Z,80.65
2019-04-05T08:22:46.006Z,81.71
2019-04-05T08:23:45.993Z,81.82
2019-04-05T08:24:45.979Z,81.62
2019-04-05T08:25:46.029Z,81.16
2019-04-05T08:26:45.965Z,81.48
2019-04-05T08:27:45.952Z,81.23
2019-04-05T08:28:45.948Z,80.76
2019-04-05T08:29:45.931Z,81.51
2019-04-05T08:30:45.918Z,81.82
2019-04-05T08:31:45.929Z,82.43
2019-04-05T08:32:45.908Z,82.54
2019-04-05T08:33:45.890Z,82.95
2019-04-05T08:34:45.880Z,82.91
2019-04-05T08:35:45.867Z,82.64
2019-04-05T08:36:45.874Z,82.19
2019-04-05T08:37:45.870Z,81.92
2019-04-05T08:38:45.837Z,81.57
2019-04-05T08:39:45.824Z,81.57
2019-04-05T08:40:45.843Z,81.27
2019-04-05T08:41:45.806Z,81.23
2019-04-05T08:42:45.799Z,81.85
2019-04-05T08:43:47.258Z,81.43
2019-04-05T08:44:45.820Z,81.64
2019-04-05T08:45:45.770Z,80.72
2019-04-05T08:46:45.778Z,80.92
2019-04-05T08:47:45.735Z,80.92
2019-04-05T08:48:45.730Z,80.88
2019-04-05T08:49:45.716Z,80.68
2019-04-05T08:50:45.706Z,80.72
2019-04-05T08:51:45.698Z,81.54
2019-04-05T08:52:45.714Z,81.13
2019-04-05T08:53:45.708Z,80.78
2019-04-05T08:54:45.681Z,80.47
2019-04-05T08:55:45.653Z,79.72
2019-04-05T08:56:45.654Z,79.48
2019-04-05T08:57:47.965Z,80.54
2019-04-05T08:58:45.617Z,80.99
2019-04-05T08:59:45.617Z,80.44
2019-04-05T09:00:45.611Z,79.89
2019-04-05T09:01:45.587Z,79.48
2019-04-05T09:02:45.634Z,79.07
2019-04-05T09:03:45.577Z,78.66
2019-04-05T09:04:45.568Z,79.17
2019-04-05T09:05:45.557Z,79.27
2019-04-05T09:06:45.540Z,79.68
2019-04-05T09:07:45.524Z,79.27
2019-04-05T09:08:45.542Z,79.24
2019-04-05T09:09:45.502Z,78.66
2019-04-05T09:10:45.490Z,78.72
2019-04-05T09:11:45.515Z,78.17
2019-04-05T09:12:45.474Z,77.97
2019-04-05T09:13:45.468Z,77.87
2019-04-05T09:14:45.477Z,78.08
2019-04-05T09:15:45.441Z,78.42
2019-04-05T09:16:45.437Z,78.42
2019-04-05T09:17:45.426Z,78.52
2019-04-05T09:18:45.417Z,78.25
2019-04-05T09:19:45.426Z,79.17
2019-04-05T09:20:45.409Z,79.48
2019-04-05T09:21:45.394Z,79.17
2019-04-05T09:22:45.366Z,79.13
2019-04-05T09:23:45.362Z,78.79
2019-04-05T09:24:45.385Z,78.17
2019-04-05T09:25:45.339Z,77.12
2019-04-05T09:26:45.328Z,77.22
2019-04-05T09:27:45.310Z,77.56
2019-04-05T09:28:45.307Z,78.17
2019-04-05T09:29:45.293Z,78.72
2019-04-05T09:30:45.303Z,79.24
2019-04-05T09:31:45.269Z,79.68
2019-04-05T09:32:45.315Z,79.34
2019-04-05T09:33:45.247Z,79.34
2019-04-05T09:34:45.233Z,78.93
2019-04-05T09:35:45.261Z,78.63
2019-04-05T09:36:45.226Z,79.38
2019-04-05T09:37:45.210Z,79.54
2019-04-05T09:38:45.200Z,79.48
2019-04-05T09:39:45.198Z,79.68
2019-04-05T09:40:45.171Z,80.19
2019-04-05T09:41:45.177Z,79.99
2019-04-05T09:42:45.148Z,79.75
2019-04-05T09:43:45.142Z,79.27
2019-04-05T09:44:45.133Z,79.13
2019-04-05T09:45:45.150Z,79.54
2019-04-05T09:46:47.216Z,79.34
2019-04-05T09:47:46.109Z,79.41
2019-04-05T09:48:45.142Z,79.10
2019-04-05T09:49:45.079Z,79.10
2019-04-05T09:50:45.069Z,78.59
2019-04-05T09:51:45.091Z,78.69
2019-04-05T09:52:45.044Z,79.34
2019-04-05T09:53:45.037Z,79.44
2019-04-05T09:54:45.021Z,79.75
2019-04-05T09:55:45.024Z,80.19
2019-04-05T09:56:45.024Z,79.99
2019-04-05T09:57:45.074Z,79.96
2019-04-05T09:58:44.994Z,79.75
2019-04-05T09:59:44.967Z,79.64
2019-04-05T10:00:44.960Z,79.00
2019-04-05T10:01:44.945Z,79.10
2019-04-05T10:02:44.942Z,78.93
2019-04-05T10:03:44.953Z,79.20
2019-04-05T10:04:44.923Z,79.30
2019-04-05T10:05:44.909Z,79.10
2019-04-05T10:06:44.918Z,79.34
2019-04-05T10:07:55.012Z,79.44
2019-04-05T10:08:46.385Z,79.64
2019-04-05T10:09:44.866Z,79.30
2019-04-05T10:10:44.865Z,79.10
2019-04-05T10:11:44.841Z,78.38
2019-04-05T10:12:44.829Z,78.79
2019-04-05T10:13:44.819Z,79.13
2019-04-05T10:14:44.851Z,79.79
2019-04-05T10:15:44.803Z,79.99
2019-04-05T10:16:44.796Z,79.89
2019-04-05T10:17:44.789Z,80.05
2019-04-05T10:18:44.776Z,79.75
2019-04-05T10:19:50.110Z,80.51
2019-04-05T10:20:45.771Z,81.57
2019-04-05T10:21:44.739Z,80.71
2019-04-05T10:22:44.726Z,81.57
2019-04-05T10:23:44.711Z,81.84
2019-04-05T10:24:44.701Z,80.46
2019-04-05T10:25:44.752Z,80.16
2019-04-05T10:26:44.679Z,79.71
2019-04-05T10:27:44.680Z,79.16
2019-04-05T10:28:44.669Z,78.34
2019-04-05T10:29:44.652Z,77.83
2019-04-05T10:30:44.643Z,77.63
2019-04-05T10:31:44.669Z,78.04
2019-04-05T10:32:46.219Z,78.45
2019-04-05T10:33:44.604Z,78.34
2019-04-05T10:34:44.593Z,78.34
2019-04-05T10:35:44.588Z,79.20
2019-04-05T10:36:44.589Z,79.30
2019-04-05T10:37:44.589Z,79.06
2019-04-05T10:38:44.548Z,78.45
2019-04-05T10:39:44.545Z,77.59
2019-04-05T10:40:44.535Z,77.83
2019-04-05T10:41:44.525Z,77.49
2019-04-05T10:42:44.515Z,77.94
2019-04-05T10:43:44.513Z,77.90
2019-04-05T10:44:44.481Z,76.64
2019-04-05T10:45:44.473Z,76.43
2019-04-05T10:46:44.484Z,75.82
2019-04-05T10:47:44.457Z,75.62
2019-04-05T10:48:44.466Z,75.41
2019-04-05T10:49:44.435Z,76.12
2019-04-05T10:50:44.431Z,75.10
2019-04-05T10:51:44.411Z,76.23
2019-04-05T10:52:44.401Z,74.87
2019-04-05T10:53:44.408Z,75.51
2019-04-05T10:54:44.379Z,74.97
2019-04-05T10:55:44.369Z,74.56
2019-04-05T10:56:44.362Z,75.27
2019-04-05T10:57:44.375Z,75.17
2019-04-05T10:58:44.343Z,75.07
2019-04-05T10:59:44.327Z,74.87
2019-04-05T11:00:44.323Z,74.56
2019-04-05T11:01:44.308Z,74.66
2019-04-05T11:02:44.303Z,74.87
2019-04-05T11:03:44.298Z,75.17
2019-04-05T11:04:44.268Z,74.73
2019-04-05T11:05:44.261Z,74.63
2019-04-05T11:06:44.246Z,73.81
2019-04-05T11:07:44.242Z,73.71
2019-04-05T11:08:44.267Z,73.98
2019-04-05T11:09:44.217Z,73.64
2019-04-05T11:10:44.205Z,74.56
2019-04-05T11:11:44.211Z,74.25
2019-04-05T11:12:44.195Z,74.35
2019-04-05T11:13:44.179Z,74.35
2019-04-05T11:14:44.183Z,74.87
2019-04-05T11:15:44.161Z,74.87
2019-04-05T11:16:44.138Z,74.63
2019-04-05T11:17:44.132Z,72.99
2019-04-05T11:18:45.196Z,73.30
2019-04-05T11:19:44.245Z,73.27
2019-04-05T11:20:44.104Z,72.65
2019-04-05T11:21:44.102Z,71.39
2019-04-05T11:22:46.558Z,70.75
2019-04-05T11:23:44.063Z,71.06
2019-04-05T11:24:44.056Z,70.54
2019-04-05T11:25:44.070Z,69.80
2019-04-05T11:26:44.037Z,69.06
2019-04-05T11:27:44.019Z,68.21
2019-04-05T11:28:44.013Z,67.69
2019-04-05T11:29:44.000Z,68.21
2019-04-05T11:30:44.009Z,68.31
2019-04-05T11:31:56.459Z,68.95
2019-04-05T11:32:44.982Z,70.04
2019-04-05T11:33:43.962Z,70.34
2019-04-05T11:34:43.952Z,70.44
2019-04-05T11:35:43.951Z,70.21
2019-04-05T11:36:43.927Z,70.00
2019-04-05T11:37:43.916Z,69.80
2019-04-05T11:38:43.912Z,69.59
2019-04-05T11:39:43.910Z,69.29
2019-04-05T11:40:43.907Z,69.80
2019-04-05T11:41:43.871Z,69.80
2019-04-05T11:42:43.859Z,70.14
2019-04-05T11:43:43.859Z,70.24
2019-04-05T11:44:43.851Z,70.54
2019-04-05T11:45:43.859Z,70.00
2019-04-05T11:46:43.833Z,69.80
2019-04-05T11:47:43.807Z,69.12
2019-04-05T11:48:43.815Z,67.46
2019-04-05T11:49:43.796Z,67.39
2019-04-05T11:50:43.811Z,67.39
2019-04-05T11:51:43.803Z,68.10
2019-04-05T11:52:43.764Z,68.44
2019-04-05T11:53:43.751Z,68.54
2019-04-05T11:54:45.794Z,68.85
2019-04-05T11:55:46.436Z,68.92
2019-04-05T11:56:43.713Z,68.51
2019-04-05T11:57:43.743Z,67.90
2019-04-05T11:58:43.698Z,66.96
2019-04-05T11:59:43.683Z,66.92
2019-04-05T12:00:43.674Z,65.67
2019-04-05T12:01:43.660Z,65.10
2019-04-05T12:02:43.648Z,63.95
2019-04-05T12:03:43.666Z,63.04
2019-04-05T12:04:43.633Z,63.14
2019-04-05T12:05:43.624Z,63.68
2019-04-05T12:06:43.616Z,63.65
2019-04-05T12:07:43.599Z,62.81
2019-04-05T12:08:43.603Z,62.43
2019-04-05T12:09:43.579Z,63.78
2019-04-05T12:10:43.563Z,63.71
2019-04-05T12:11:46.285Z,65.03
2019-04-05T12:12:43.570Z,63.71
2019-04-05T12:13:43.571Z,65.06
2019-04-05T12:14:43.525Z,65.57
2019-04-05T12:15:43.540Z,64.93
2019-04-05T12:16:43.502Z,63.65
2019-04-05T12:17:43.494Z,63.21
2019-04-05T12:18:43.480Z,61.83
2019-04-05T12:19:43.492Z,59.16
2019-04-05T12:20:50.922Z,53.83
2019-04-05T12:21:44.445Z,51.93
2019-04-05T12:22:43.435Z,51.03
2019-04-05T12:23:43.430Z,51.06
2019-04-05T12:24:43.457Z,50.20
2019-04-05T12:25:43.406Z,48.10
2019-04-05T12:26:43.396Z,47.45
2019-04-05T12:27:43.378Z,45.83
2019-04-05T12:28:43.373Z,47.58
2019-04-05T12:29:43.365Z,47.27
2019-04-05T12:30:45.763Z,48.55
2019-04-05T12:31:43.337Z,48.97
2019-04-05T12:32:43.338Z,49.25
2019-04-05T12:33:43.312Z,47.25
2019-04-05T12:34:43.305Z,45.20
2019-04-05T12:35:43.328Z,46.87
2019-04-05T12:36:43.301Z,47.85
2019-04-05T12:37:50.064Z,49.73
2019-04-05T12:38:44.292Z,49.19
2019-04-05T12:39:43.251Z,48.22
2019-04-05T12:40:44.208Z,46.62
2019-04-05T12:41:44.882Z,44.86
2019-04-05T12:42:43.726Z,45.62
2019-04-05T12:43:44.632Z,45.30
2019-04-05T12:44:45.042Z,45.80
2019-04-05T12:45:44.752Z,44.98
2019-04-05T12:46:43.436Z,44.98
2019-04-05T12:47:45.351Z,44.96
2019-04-05T12:48:45.439Z,44.78
2019-04-05T12:49:45.216Z,43.13
2019-04-05T12:50:44.910Z,43.85
2019-04-05T12:51:43.403Z,44.35
2019-04-05T12:52:43.117Z,44.48